createdAt,value
2022-07-26T00:01:39.064Z,98276.13
2022-07-26T00:04:06.268Z,98278.28
2022-07-26T00:06:33.277Z,98265.72
2022-07-26T00:09:00.407Z,98263.47
2022-07-26T00:11:28.787Z,98263.94
2022-07-26T00:13:55.740Z,98251.88
2022-07-26T00:16:23.337Z,98250.25
2022-07-26T00:18:50.214Z,98252.91
2022-07-26T00:21:17.046Z,98242.94
2022-07-26T00:23:44.113Z,98239.53
2022-07-26T00:26:10.873Z,98240.00
2022-07-26T00:28:37.776Z,98231.63
2022-07-26T00:31:04.921Z,98222.84
2022-07-26T00:33:31.814Z,98228.03
2022-07-26T00:35:58.662Z,98229.84
2022-07-26T00:38:25.869Z,98220.06
2022-07-26T00:40:53.254Z,98219.00
2022-07-26T00:43:20.157Z,98217.41
2022-07-26T00:45:47.185Z,98217.13
2022-07-26T00:48:14.022Z,98223.78
2022-07-26T00:50:43.020Z,98218.91
2022-07-26T00:53:10.006Z,98220.72
2022-07-26T00:55:36.844Z,98212.13
2022-07-26T00:58:03.731Z,98215.88
2022-07-26T01:00:30.782Z,98210.16
2022-07-26T01:03:00.511Z,98204.97
2022-07-26T01:05:27.851Z,98202.94
2022-07-26T01:07:55.317Z,98205.50
2022-07-26T01:10:22.260Z,98196.78
2022-07-26T01:12:49.081Z,98204.03
2022-07-26T01:15:17.025Z,98201.97
2022-07-26T01:17:44.303Z,98204.63
2022-07-26T01:20:13.044Z,98208.25
2022-07-26T01:22:40.364Z,98214.19
2022-07-26T01:25:07.662Z,98210.22
2022-07-26T01:27:39.430Z,98208.06
2022-07-26T01:30:11.632Z,98198.78
2022-07-26T01:32:38.759Z,98198.00
2022-07-26T01:35:07.480Z,98188.59
2022-07-26T01:37:34.553Z,98192.34
2022-07-26T01:40:01.553Z,98191.25
2022-07-26T01:42:28.360Z,98190.56
2022-07-26T01:44:55.491Z,98183.59
2022-07-26T01:47:22.405Z,98184.56
2022-07-26T01:49:49.240Z,98180.34
2022-07-26T01:52:16.303Z,98180.81
2022-07-26T01:54:43.084Z,98183.25
2022-07-26T01:57:09.918Z,98172.47
2022-07-26T01:59:36.910Z,98171.53
2022-07-26T02:02:03.776Z,98172.09
2022-07-26T02:04:49.043Z,98178.03
2022-07-26T02:07:16.043Z,98178.50
2022-07-26T02:09:42.812Z,98173.91
2022-07-26T02:12:09.934Z,98166.66
2022-07-26T02:14:36.990Z,98173.81
2022-07-26T02:17:04.043Z,98163.28
2022-07-26T02:19:31.759Z,98162.44
2022-07-26T02:21:59.099Z,98155.56
2022-07-26T02:24:30.264Z,98161.13
2022-07-26T02:26:58.369Z,98153.63
2022-07-26T02:29:26.217Z,98150.72
2022-07-26T02:31:54.147Z,98157.50
2022-07-26T02:34:20.998Z,98159.81
2022-07-26T02:36:48.085Z,98150.72
2022-07-26T02:39:15.022Z,98159.53
2022-07-26T02:41:42.010Z,98166.38
2022-07-26T02:44:10.337Z,98156.47
2022-07-26T02:46:38.141Z,98149.47
2022-07-26T02:49:05.129Z,98151.41
2022-07-26T02:51:32.513Z,98146.91
2022-07-26T02:53:59.327Z,98152.00
2022-07-26T02:56:26.147Z,98156.97
2022-07-26T02:58:53.206Z,98163.72
2022-07-26T03:01:20.296Z,98151.41
2022-07-26T03:03:50.849Z,98152.34
2022-07-26T03:06:19.429Z,98155.00
2022-07-26T03:08:47.027Z,98162.75
2022-07-26T03:11:14.236Z,98152.50
2022-07-26T03:13:41.277Z,98154.59
2022-07-26T03:16:08.634Z,98154.47
2022-07-26T03:18:35.507Z,98154.97
2022-07-26T03:21:03.200Z,98142.16
2022-07-26T03:23:33.516Z,98142.50
2022-07-26T03:26:02.162Z,98134.06
2022-07-26T03:28:31.344Z,98143.00
2022-07-26T03:30:58.459Z,98137.91
2022-07-26T03:33:25.400Z,98134.53
2022-07-26T03:35:52.477Z,98134.88
2022-07-26T03:38:19.781Z,98130.59
2022-07-26T03:40:46.689Z,98120.91
2022-07-26T03:43:13.742Z,98120.88
2022-07-26T03:45:42.313Z,98119.00
2022-07-26T03:48:09.130Z,98121.66
2022-07-26T03:50:36.588Z,98128.34
2022-07-26T03:53:04.680Z,98124.69
2022-07-26T03:55:50.059Z,98114.69
2022-07-26T03:58:19.186Z,98114.34
2022-07-26T04:00:46.670Z,98105.66
2022-07-26T04:03:13.553Z,98112.03
2022-07-26T04:05:40.659Z,98106.59
2022-07-26T04:08:15.551Z,98100.78
2022-07-26T04:10:46.184Z,98101.28
2022-07-26T04:13:13.049Z,98090.63
2022-07-26T04:15:39.932Z,98092.19
2022-07-26T04:18:06.923Z,98090.69
2022-07-26T04:20:33.788Z,98090.28
2022-07-26T04:23:00.629Z,98087.19
2022-07-26T04:25:27.756Z,98092.53
2022-07-26T04:28:08.568Z,98082.72
2022-07-26T04:30:35.960Z,98079.09
2022-07-26T04:33:03.390Z,98071.47
2022-07-26T04:35:30.321Z,98075.28
2022-07-26T04:37:57.516Z,98065.00
2022-07-26T04:40:25.912Z,98064.69
2022-07-26T04:42:52.706Z,98058.59
2022-07-26T04:45:20.935Z,98056.81
2022-07-26T04:47:50.393Z,98063.94
2022-07-26T04:50:19.127Z,98056.00
2022-07-26T04:52:46.672Z,98053.19
2022-07-26T04:55:13.773Z,98061.41
2022-07-26T04:57:41.028Z,98069.06
2022-07-26T05:00:26.981Z,98068.53
2022-07-26T05:02:59.709Z,98069.25
2022-07-26T05:05:29.491Z,98069.91
2022-07-26T05:07:58.493Z,98062.66
2022-07-26T05:10:35.397Z,98061.97
2022-07-26T05:13:04.400Z,98060.50
2022-07-26T05:15:36.709Z,98061.47
2022-07-26T05:18:10.270Z,98064.59
2022-07-26T05:20:38.308Z,98064.31
2022-07-26T05:23:05.459Z,98069.66
2022-07-26T05:25:32.603Z,98067.31
2022-07-26T05:27:59.403Z,98070.84
2022-07-26T05:30:26.608Z,98069.41
2022-07-26T05:32:53.409Z,98069.53
2022-07-26T05:35:20.277Z,98062.75
2022-07-26T05:37:47.366Z,98061.03
2022-07-26T05:40:14.414Z,98062.28
2022-07-26T05:42:41.423Z,98061.06
2022-07-26T05:45:09.360Z,98064.13
2022-07-26T05:47:36.360Z,98069.38
2022-07-26T05:50:04.744Z,98069.06
2022-07-26T05:52:32.078Z,98066.22
2022-07-26T05:54:58.940Z,98064.00
2022-07-26T05:57:25.994Z,98069.34
2022-07-26T05:59:53.035Z,98069.16
2022-07-26T06:02:20.105Z,98061.94
2022-07-26T06:04:47.594Z,98060.88
2022-07-26T06:07:15.588Z,98061.13
2022-07-26T06:09:42.593Z,98056.00
2022-07-26T06:12:09.636Z,98054.50
2022-07-26T06:14:36.667Z,98060.81
2022-07-26T06:17:04.600Z,98062.25
2022-07-26T06:19:31.988Z,98062.34
2022-07-26T06:21:59.146Z,98060.22
2022-07-26T06:24:26.029Z,98063.00
2022-07-26T06:26:57.195Z,98068.63
2022-07-26T06:29:32.618Z,98054.28
2022-07-26T06:32:00.107Z,98052.63
2022-07-26T06:34:27.121Z,98051.47
2022-07-26T06:36:54.196Z,98048.34
2022-07-26T06:39:21.155Z,98053.09
2022-07-26T06:41:47.964Z,98046.91
2022-07-26T06:44:15.058Z,98045.41
2022-07-26T06:46:41.883Z,98050.97
2022-07-26T06:49:08.900Z,98048.84
2022-07-26T06:51:35.906Z,98042.59
2022-07-26T06:54:03.826Z,98042.19
2022-07-26T06:56:32.527Z,98033.75
2022-07-26T06:58:59.574Z,98030.28
2022-07-26T07:01:58.693Z,98038.34
2022-07-26T07:04:13.580Z,98038.78
2022-07-26T07:06:40.388Z,98043.53
2022-07-26T07:09:08.319Z,98050.13
2022-07-26T07:11:35.937Z,98052.72
2022-07-26T07:14:03.481Z,98053.00
2022-07-26T07:16:30.676Z,98047.16
2022-07-26T07:18:57.796Z,98050.78
2022-07-26T07:21:24.650Z,98050.53
2022-07-26T07:23:51.466Z,98052.38
2022-07-26T07:26:20.290Z,98049.13
2022-07-26T07:28:47.153Z,98048.50
2022-07-26T07:31:15.613Z,98041.34
2022-07-26T07:33:52.657Z,98048.63
2022-07-26T07:36:21.108Z,98043.88
2022-07-26T07:38:49.432Z,98040.34
2022-07-26T07:41:16.554Z,98041.59
2022-07-26T07:43:43.356Z,98038.09
2022-07-26T07:46:10.540Z,98032.06
2022-07-26T07:48:43.432Z,98035.59
2022-07-26T07:51:13.843Z,98032.00
2022-07-26T07:53:40.656Z,98038.28
2022-07-26T07:56:08.158Z,98025.66
2022-07-26T07:58:35.190Z,98032.75
2022-07-26T08:01:02.114Z,98029.78
2022-07-26T08:03:38.421Z,98033.19
2022-07-26T08:06:08.959Z,98035.59
2022-07-26T08:08:37.024Z,98041.22
2022-07-26T08:11:07.804Z,98038.19
2022-07-26T08:13:35.205Z,98034.88
2022-07-26T08:16:02.101Z,98038.72
2022-07-26T08:18:29.143Z,98031.75
2022-07-26T08:20:57.129Z,98032.75
2022-07-26T08:23:24.106Z,98042.03
2022-07-26T08:26:01.947Z,98039.34
2022-07-26T08:28:48.400Z,98038.06
2022-07-26T08:31:16.523Z,98031.75
2022-07-26T08:33:45.812Z,98031.72
2022-07-26T08:36:14.689Z,98027.94
2022-07-26T08:38:41.954Z,98022.41
2022-07-26T08:41:09.229Z,98030.25
2022-07-26T08:43:52.362Z,98027.31
2022-07-26T08:46:26.960Z,98030.84
2022-07-26T08:48:55.970Z,98027.81
2022-07-26T08:51:25.241Z,98033.66
2022-07-26T08:54:04.855Z,98022.97
2022-07-26T08:56:37.177Z,98025.91
2022-07-26T08:59:20.330Z,98016.47
2022-07-26T09:02:07.361Z,98018.75
2022-07-26T09:04:43.684Z,98029.25
2022-07-26T09:07:11.515Z,98015.34
2022-07-26T09:10:03.809Z,98026.66
2022-07-26T09:12:31.930Z,98012.06
2022-07-26T09:15:01.138Z,98013.13
2022-07-26T09:17:49.970Z,98019.91
2022-07-26T09:20:24.417Z,98014.72
2022-07-26T09:23:08.054Z,98016.88
2022-07-26T09:25:40.596Z,98021.19
2022-07-26T09:28:33.497Z,98019.63
2022-07-26T09:31:03.384Z,98015.34
2022-07-26T09:33:47.976Z,98024.22
2022-07-26T09:36:15.826Z,98018.13
2022-07-26T09:38:48.943Z,98012.22
2022-07-26T09:41:23.547Z,98018.88
2022-07-26T09:43:54.015Z,98011.28
2022-07-26T09:46:23.243Z,98010.00
2022-07-26T09:49:09.806Z,98019.44
2022-07-26T09:51:39.131Z,98014.75
2022-07-26T09:54:07.116Z,98008.16
2022-07-26T09:56:44.386Z,98007.50
2022-07-26T09:59:14.294Z,98009.66
2022-07-26T10:01:42.322Z,98013.50
2022-07-26T10:04:10.534Z,98009.94
2022-07-26T10:06:37.981Z,98009.63
2022-07-26T10:09:05.971Z,98006.00
2022-07-26T10:11:41.676Z,98010.84
2022-07-26T10:14:34.025Z,98013.03
2022-07-26T10:17:21.557Z,98011.84
2022-07-26T10:19:58.441Z,98003.97
2022-07-26T10:22:27.381Z,98007.41
2022-07-26T10:24:58.114Z,98003.22
2022-07-26T10:27:42.687Z,98007.53
2022-07-26T10:30:18.592Z,98003.06
2022-07-26T10:32:51.582Z,98003.75
2022-07-26T10:35:31.658Z,98000.91
2022-07-26T10:38:00.959Z,97997.09
2022-07-26T10:40:30.641Z,97999.28
2022-07-26T10:43:39.622Z,97993.84
2022-07-26T10:46:17.146Z,97996.16
2022-07-26T10:49:06.370Z,98004.78
2022-07-26T10:51:37.715Z,97995.00
2022-07-26T10:54:10.018Z,97992.38
2022-07-26T10:56:38.256Z,97991.94
2022-07-26T10:59:06.045Z,98008.34
2022-07-26T11:01:41.633Z,98000.75
2022-07-26T11:04:19.474Z,97998.78
2022-07-26T11:06:46.549Z,97995.63
2022-07-26T11:09:13.946Z,97995.72
2022-07-26T11:11:47.217Z,97988.31
2022-07-26T11:14:18.032Z,97988.00
2022-07-26T11:16:50.514Z,97987.72
2022-07-26T11:19:24.826Z,97986.81
2022-07-26T11:21:59.096Z,97982.66
2022-07-26T11:24:26.963Z,97983.53
2022-07-26T11:26:55.864Z,97975.19
2022-07-26T11:29:37.343Z,97982.66
2022-07-26T11:32:18.174Z,97975.09
2022-07-26T11:34:45.745Z,97978.41
2022-07-26T11:37:13.625Z,97968.78
2022-07-26T11:39:40.581Z,97971.47
2022-07-26T11:42:09.869Z,97979.38
2022-07-26T11:44:37.291Z,97976.09
2022-07-26T11:47:15.630Z,97976.66
2022-07-26T11:50:01.294Z,97969.84
2022-07-26T11:52:31.875Z,97972.34
2022-07-26T11:54:59.403Z,97977.25
2022-07-26T11:57:31.710Z,97974.16
2022-07-26T12:00:00.616Z,97971.69
2022-07-26T12:02:30.304Z,97969.84
2022-07-26T12:05:14.981Z,97966.50
2022-07-26T12:07:57.292Z,97964.50
2022-07-26T12:10:24.488Z,97954.34
2022-07-26T12:13:10.232Z,97960.47
2022-07-26T12:15:53.494Z,97955.63
2022-07-26T12:18:31.354Z,97958.47
2022-07-26T12:21:05.551Z,97944.72
2022-07-26T12:23:48.381Z,97941.00
2022-07-26T12:26:34.164Z,97946.66
2022-07-26T12:29:19.688Z,97941.88
2022-07-26T12:31:47.514Z,97939.50
2022-07-26T12:34:21.353Z,97941.06
2022-07-26T12:36:48.417Z,97945.22
2022-07-26T12:39:22.523Z,97949.56
2022-07-26T12:41:50.665Z,97939.84
2022-07-26T12:44:17.851Z,97944.47
2022-07-26T12:46:45.025Z,97941.56
2022-07-26T12:49:12.554Z,97946.47
2022-07-26T12:51:40.083Z,97947.94
2022-07-26T12:54:07.198Z,97961.59
2022-07-26T12:56:34.522Z,97958.25
2022-07-26T12:59:01.864Z,97958.13
2022-07-26T13:01:30.286Z,97966.78
2022-07-26T13:03:57.323Z,97959.63
2022-07-26T13:06:24.463Z,97967.50
2022-07-26T13:08:51.446Z,97971.78
2022-07-26T13:11:18.400Z,97972.28
2022-07-26T13:13:45.449Z,97987.38
2022-07-26T13:16:12.638Z,97979.66
2022-07-26T13:18:39.676Z,97981.97
2022-07-26T13:21:06.947Z,97996.75
2022-07-26T13:23:34.904Z,97997.00
2022-07-26T13:26:02.779Z,98009.22
2022-07-26T13:28:30.536Z,97998.50
2022-07-26T13:30:57.596Z,98007.81
2022-07-26T13:33:24.434Z,98006.88
2022-07-26T13:35:51.559Z,98004.72
2022-07-26T13:38:19.805Z,98015.03
2022-07-26T13:40:47.070Z,98012.66
2022-07-26T13:43:14.768Z,98010.41
2022-07-26T13:45:41.821Z,98022.47
2022-07-26T13:48:08.726Z,98036.50
2022-07-26T13:50:35.773Z,98031.16
2022-07-26T13:53:02.761Z,98032.88
2022-07-26T13:55:29.611Z,98033.31
2022-07-26T13:57:58.216Z,98036.88
2022-07-26T14:00:27.089Z,98040.22
2022-07-26T14:02:55.336Z,98054.25
2022-07-26T14:05:23.359Z,98068.28
2022-07-26T14:07:50.779Z,98077.81
2022-07-26T14:10:18.323Z,98078.88
2022-07-26T14:12:49.036Z,98082.31
2022-07-26T14:15:21.755Z,98086.94
2022-07-26T14:17:50.008Z,98086.41
2022-07-26T14:20:20.064Z,98088.34
2022-07-26T14:22:47.814Z,98094.88
2022-07-26T14:25:14.959Z,98097.81
2022-07-26T14:27:41.763Z,98105.31
2022-07-26T14:30:08.982Z,98094.16
2022-07-26T14:32:36.087Z,98098.00
2022-07-26T14:35:03.243Z,98107.66
2022-07-26T14:37:43.251Z,98114.00
2022-07-26T14:40:17.267Z,98113.59
2022-07-26T14:42:45.597Z,98114.59
2022-07-26T14:45:13.823Z,98114.84
2022-07-26T14:47:41.034Z,98122.88
2022-07-26T14:50:09.479Z,98127.22
2022-07-26T14:52:42.018Z,98132.13
2022-07-26T14:55:09.688Z,98134.56
2022-07-26T14:57:39.273Z,98141.06
2022-07-26T15:00:11.977Z,98133.03
2022-07-26T15:02:44.325Z,98132.88
2022-07-26T15:05:12.873Z,98133.41
2022-07-26T15:07:41.113Z,98133.06
2022-07-26T15:10:10.882Z,98144.94
2022-07-26T15:12:38.340Z,98140.53
2022-07-26T15:15:07.272Z,98153.06
2022-07-26T15:17:34.232Z,98150.00
2022-07-26T15:20:01.616Z,98151.53
2022-07-26T15:22:29.750Z,98157.69
2022-07-26T15:24:56.733Z,98158.97
2022-07-26T15:27:23.555Z,98175.34
2022-07-26T15:29:51.004Z,98180.94
2022-07-26T15:32:20.448Z,98182.63
2022-07-26T15:34:47.240Z,98190.78
2022-07-26T15:37:14.088Z,98204.25
2022-07-26T15:39:41.374Z,98203.44
2022-07-26T15:42:09.261Z,98218.25
2022-07-26T15:44:38.870Z,98231.53
2022-07-26T15:47:06.477Z,98225.88
2022-07-26T15:49:34.217Z,98232.41
2022-07-26T15:52:10.396Z,98227.53
2022-07-26T15:54:37.636Z,98226.34
2022-07-26T15:57:04.610Z,98236.56
2022-07-26T15:59:31.791Z,98230.69
2022-07-26T16:01:58.643Z,98235.88
2022-07-26T16:04:25.468Z,98238.53
2022-07-26T16:06:52.567Z,98244.75
2022-07-26T16:09:20.004Z,98249.44
2022-07-26T16:11:48.160Z,98243.53
2022-07-26T16:14:16.180Z,98254.59
2022-07-26T16:16:43.484Z,98257.94
2022-07-26T16:19:11.048Z,98263.97
2022-07-26T16:21:38.891Z,98259.09
2022-07-26T16:24:07.515Z,98265.09
2022-07-26T16:26:35.541Z,98259.91
2022-07-26T16:29:03.587Z,98259.22
2022-07-26T16:31:30.889Z,98256.53
2022-07-26T16:33:58.195Z,98259.06
2022-07-26T16:36:25.793Z,98253.13
2022-07-26T16:38:52.644Z,98256.41
2022-07-26T16:41:19.497Z,98259.22
2022-07-26T16:43:46.515Z,98252.50
2022-07-26T16:46:13.433Z,98256.69
2022-07-26T16:48:40.372Z,98260.66
2022-07-26T16:51:07.551Z,98256.09
2022-07-26T16:53:34.366Z,98260.25
2022-07-26T16:56:01.163Z,98258.88
2022-07-26T16:58:28.212Z,98248.13
2022-07-26T17:00:55.208Z,98257.50
2022-07-26T17:03:22.049Z,98253.97
2022-07-26T17:05:49.391Z,98246.41
2022-07-26T17:08:16.625Z,98249.56
2022-07-26T17:10:44.209Z,98252.34
2022-07-26T17:13:11.657Z,98256.03
2022-07-26T17:15:38.853Z,98248.16
2022-07-26T17:18:05.726Z,98251.97
2022-07-26T17:20:32.758Z,98249.28
2022-07-26T17:22:59.675Z,98250.63
2022-07-26T17:25:26.608Z,98248.91
2022-07-26T17:30:20.544Z,98258.69
2022-07-26T17:32:47.462Z,98259.03
2022-07-26T17:35:14.618Z,98265.53
2022-07-26T17:37:41.707Z,98266.84
2022-07-26T17:40:09.426Z,98266.16
2022-07-26T17:42:37.354Z,98271.66
2022-07-26T17:45:05.879Z,98265.78
2022-07-26T17:47:32.704Z,98267.06
2022-07-26T17:50:26.464Z,98262.41
2022-07-26T17:52:50.433Z,98271.88
2022-07-26T17:55:21.011Z,98275.72
2022-07-26T17:57:49.685Z,98273.03
2022-07-26T18:00:20.397Z,98269.53
2022-07-26T18:02:48.420Z,98282.78
2022-07-26T18:05:16.752Z,98282.09
2022-07-26T18:07:43.825Z,98277.88
2022-07-26T18:10:11.666Z,98287.75
2022-07-26T18:12:38.472Z,98280.56
2022-07-26T18:15:07.097Z,98289.28
2022-07-26T18:17:34.342Z,98286.44
2022-07-26T18:20:01.142Z,98295.19
2022-07-26T18:22:27.987Z,98295.03
2022-07-26T18:24:54.991Z,98294.03
2022-07-26T18:27:22.406Z,98290.50
2022-07-26T18:29:50.286Z,98288.84
2022-07-26T18:32:19.360Z,98282.47
2022-07-26T18:34:52.111Z,98285.16
2022-07-26T18:37:20.756Z,98281.63
2022-07-26T18:39:48.390Z,98285.47
2022-07-26T18:42:15.620Z,98287.47
2022-07-26T18:44:42.847Z,98294.81
2022-07-26T18:47:09.845Z,98293.78
2022-07-26T18:49:36.805Z,98292.97
2022-07-26T18:52:08.552Z,98303.53
2022-07-26T18:54:36.236Z,98303.53
2022-07-26T18:57:03.594Z,98302.69
2022-07-26T18:59:31.267Z,98310.88
2022-07-26T19:02:00.100Z,98309.34
2022-07-26T19:04:28.159Z,98315.69
2022-07-26T19:06:55.731Z,98324.56
2022-07-26T19:09:22.614Z,98323.22
2022-07-26T19:11:49.804Z,98323.69
2022-07-26T19:14:17.086Z,98328.94
2022-07-26T19:16:43.886Z,98328.69
2022-07-26T19:19:11.053Z,98336.34
2022-07-26T19:21:40.134Z,98331.56
2022-07-26T19:24:07.178Z,98331.72
2022-07-26T19:26:34.583Z,98339.75
2022-07-26T19:29:01.727Z,98338.53
2022-07-26T19:31:28.679Z,98342.91
2022-07-26T19:33:55.572Z,98348.97
2022-07-26T19:36:26.610Z,98353.38
2022-07-26T19:38:55.914Z,98347.75
2022-07-26T19:41:23.267Z,98351.88
2022-07-26T19:43:50.261Z,98352.44
2022-07-26T19:46:17.464Z,98357.53
2022-07-26T19:48:44.968Z,98356.00
2022-07-26T19:51:12.033Z,98359.22
2022-07-26T19:53:38.812Z,98363.06
2022-07-26T19:56:07.990Z,98363.34
2022-07-26T19:58:34.864Z,98362.78
2022-07-26T20:01:02.067Z,98365.88
2022-07-26T20:03:29.106Z,98366.44
2022-07-26T20:05:56.940Z,98369.97
2022-07-26T20:08:24.459Z,98363.81
2022-07-26T20:10:51.976Z,98360.94
2022-07-26T20:13:19.241Z,98363.91
2022-07-26T20:15:47.386Z,98366.00
2022-07-26T20:18:14.552Z,98355.44
2022-07-26T20:20:41.676Z,98354.47
2022-07-26T20:23:11.065Z,98362.63
2022-07-26T20:25:38.154Z,98359.25
2022-07-26T20:28:05.320Z,98363.88
2022-07-26T20:30:32.162Z,98361.63
2022-07-26T20:32:59.242Z,98362.63
2022-07-26T20:35:26.133Z,98373.47
2022-07-26T20:37:53.012Z,98374.72
2022-07-26T20:40:20.548Z,98371.22
2022-07-26T20:42:50.334Z,98371.06
2022-07-26T20:45:17.775Z,98374.13
2022-07-26T20:47:44.829Z,98369.78
2022-07-26T20:50:12.776Z,98366.41
2022-07-26T20:52:40.132Z,98371.03
2022-07-26T20:55:07.691Z,98379.59
2022-07-26T20:57:34.777Z,98379.88
2022-07-26T21:00:01.956Z,98377.50
2022-07-26T21:02:29.148Z,98383.97
2022-07-26T21:04:56.128Z,98377.19
2022-07-26T21:07:24.274Z,98392.66
2022-07-26T21:10:12.023Z,98393.19
2022-07-26T21:12:38.874Z,98387.28
2022-07-26T21:15:06.253Z,98386.13
2022-07-26T21:17:34.805Z,98392.44
2022-07-26T21:20:02.967Z,98389.31
2022-07-26T21:22:29.991Z,98396.47
2022-07-26T21:24:57.219Z,98404.75
2022-07-26T21:27:24.048Z,98405.97
2022-07-26T21:29:50.995Z,98405.16
2022-07-26T21:32:17.991Z,98400.19
2022-07-26T21:34:44.899Z,98399.50
2022-07-26T21:37:11.740Z,98401.13
2022-07-26T21:39:38.745Z,98405.91
2022-07-26T21:42:05.570Z,98397.19
2022-07-26T21:44:32.358Z,98393.78
2022-07-26T21:46:59.471Z,98393.78
2022-07-26T21:49:26.357Z,98391.41
2022-07-26T21:51:53.285Z,98396.88
2022-07-26T21:54:20.346Z,98403.16
2022-07-26T21:56:47.155Z,98399.94
2022-07-26T21:59:14.502Z,98401.75
2022-07-26T22:01:42.805Z,98405.28
2022-07-26T22:04:10.283Z,98414.00
2022-07-26T22:06:37.825Z,98407.94
2022-07-26T22:09:05.195Z,98413.41
2022-07-26T22:11:32.041Z,98414.94
2022-07-26T22:13:58.856Z,98423.81
2022-07-26T22:16:25.923Z,98414.13
2022-07-26T22:18:52.752Z,98423.13
2022-07-26T22:21:19.620Z,98426.03
2022-07-26T22:23:46.714Z,98426.88
2022-07-26T22:26:14.340Z,98426.41
2022-07-26T22:28:41.204Z,98429.94
2022-07-26T22:31:08.391Z,98435.25
2022-07-26T22:33:35.229Z,98430.19
2022-07-26T22:36:02.016Z,98429.47
2022-07-26T22:38:30.432Z,98430.72
2022-07-26T22:40:57.325Z,98428.88
2022-07-26T22:43:24.092Z,98430.47
2022-07-26T22:45:51.508Z,98429.59
2022-07-26T22:48:18.507Z,98427.66
2022-07-26T22:50:45.455Z,98424.03
2022-07-26T22:53:12.601Z,98425.13
2022-07-26T22:55:39.500Z,98429.47
2022-07-26T22:58:06.348Z,98433.00
2022-07-26T23:00:33.445Z,98423.31
2022-07-26T23:03:00.275Z,98426.81
2022-07-26T23:05:36.073Z,98427.53
2022-07-26T23:08:36.267Z,98425.84
2022-07-26T23:10:59.761Z,98425.25
2022-07-26T23:13:26.763Z,98420.19
2022-07-26T23:15:58.137Z,98419.06
2022-07-26T23:18:27.319Z,98426.47
2022-07-26T23:20:54.108Z,98425.66
2022-07-26T23:23:20.950Z,98423.81
2022-07-26T23:25:47.943Z,98427.31
2022-07-26T23:28:24.753Z,98429.03
2022-07-26T23:31:14.398Z,98433.38
2022-07-26T23:33:52.775Z,98439.44
2022-07-26T23:36:26.192Z,98438.72
2022-07-26T23:38:57.536Z,98432.41
2022-07-26T23:41:25.358Z,98433.53
2022-07-26T23:43:53.065Z,98428.88
2022-07-26T23:46:20.799Z,98430.84
2022-07-26T23:48:48.207Z,98433.66
2022-07-26T23:51:15.375Z,98432.66
2022-07-26T23:53:42.438Z,98434.50
2022-07-26T23:56:09.806Z,98434.50
2022-07-26T23:58:36.717Z,98445.16
